Time;durP1;ratioP1;P1;durP2;ratioP2;P2;SDS_P1;SDS_P2;PMS_P1;PMS_P2;Temp;Humidity;BMP_temperature;BMP_pressure;BME280_temperature;BME280_humidity;BME280_pressure;Samples;Min_cycle;Max_cycle;Signal;HPM_P1;HPM_P2
2022/11/01 00:01:11;;;;;;;7.07;3.40;;;13.60;99.90;;;;;;5051643;28;20081;-81
2022/11/01 00:03:36;;;;;;;4.50;3.15;;;13.60;99.90;;;;;;5048078;28;20120;-81
2022/11/01 00:06:02;;;;;;;7.50;3.10;;;13.70;99.90;;;;;;5030304;28;20057;-81
2022/11/01 00:08:28;;;;;;;7.97;2.75;;;13.80;99.90;;;;;;5048495;28;20049;-81
2022/11/01 00:11:04;;;;;;;9.40;3.20;;;13.80;99.90;;;;;;5033312;28;20531;-81
2022/11/01 00:13:31;;;;;;;7.38;2.70;;;13.90;99.90;;;;;;5062771;28;20052;-81
2022/11/01 00:15:57;;;;;;;9.65;3.38;;;13.90;99.90;;;;;;5050154;28;20045;-82
2022/11/01 00:18:23;;;;;;;7.45;3.35;;;13.90;99.90;;;;;;5049564;28;20045;-81
2022/11/01 00:20:48;;;;;;;6.20;2.55;;;13.90;99.90;;;;;;5029252;28;20050;-81
2022/11/01 00:23:14;;;;;;;6.50;2.97;;;14.00;99.90;;;;;;5050455;28;20053;-81
2022/11/01 00:25:40;;;;;;;8.73;2.35;;;14.00;99.90;;;;;;5033989;28;20110;-81
2022/11/01 00:28:05;;;;;;;5.85;2.67;;;14.10;99.90;;;;;;5034224;28;20041;-81
2022/11/01 00:30:35;;;;;;;8.13;3.60;;;14.20;99.90;;;;;;5049909;28;20521;-81
2022/11/01 00:33:00;;;;;;;5.63;2.20;;;14.20;99.90;;;;;;5067596;28;20045;-82
2022/11/01 00:35:26;;;;;;;6.63;2.58;;;14.20;99.90;;;;;;5034116;28;20044;-82
2022/11/01 00:37:54;;;;;;;4.97;2.65;;;14.20;99.90;;;;;;5034260;28;20116;-82
2022/11/01 00:40:19;;;;;;;3.35;2.40;;;14.20;99.90;;;;;;5050153;28;20041;-82
2022/11/01 00:42:45;;;;;;;7.95;2.58;;;14.20;99.90;;;;;;5043742;28;20134;-82
2022/11/01 00:45:11;;;;;;;10.90;2.72;;;14.30;99.90;;;;;;5033514;28;20053;-82
2022/11/01 00:47:36;;;;;;;9.07;2.75;;;14.30;99.90;;;;;;5019923;28;20059;-82
2022/11/01 00:50:02;;;;;;;6.30;3.15;;;14.40;99.90;;;;;;5050427;28;20106;-81
2022/11/01 00:52:28;;;;;;;4.18;2.75;;;14.40;99.90;;;;;;5053146;28;20045;-81
2022/11/01 00:54:53;;;;;;;6.28;2.88;;;14.50;99.90;;;;;;5029858;28;20049;-82
2022/11/01 00:57:19;;;;;;;4.95;2.42;;;14.50;99.90;;;;;;5030187;28;20487;-81
2022/11/01 00:59:45;;;;;;;7.35;1.92;;;14.60;99.90;;;;;;5017413;28;20476;-81
2022/11/01 01:02:11;;;;;;;6.72;2.15;;;14.60;99.90;;;;;;5049358;28;20057;-83
2022/11/01 01:04:41;;;;;;;6.75;2.80;;;14.60;99.90;;;;;;5048269;28;20076;-81
2022/11/01 01:07:06;;;;;;;6.72;2.45;;;14.60;99.90;;;;;;5050908;28;20531;-82
2022/11/01 01:09:32;;;;;;;4.60;2.88;;;14.60;99.90;;;;;;5051783;28;20128;-82
2022/11/01 01:11:58;;;;;;;5.03;2.85;;;14.60;99.90;;;;;;5032815;28;20049;-81
2022/11/01 01:14:24;;;;;;;6.38;2.38;;;14.60;99.90;;;;;;5049234;28;20088;-81
2022/11/01 01:16:50;;;;;;;4.25;1.98;;;14.50;99.90;;;;;;5047412;28;20620;-82
2022/11/01 01:19:16;;;;;;;4.45;2.47;;;14.50;99.90;;;;;;5050951;28;20045;-81
2022/11/01 01:21:41;;;;;;;8.68;2.53;;;14.50;99.90;;;;;;5036822;28;20067;-82
2022/11/01 01:24:07;;;;;;;3.47;2.50;;;14.60;99.90;;;;;;5053008;28;20049;-82
2022/11/01 01:26:33;;;;;;;4.25;2.47;;;14.50;99.90;;;;;;5051960;28;20044;-85
2022/11/01 01:28:59;;;;;;;4.43;2.50;;;14.50;99.90;;;;;;5053923;28;20045;-82
2022/11/01 01:31:25;;;;;;;5.22;2.65;;;14.50;99.90;;;;;;5053252;28;20084;-82
2022/11/01 01:33:51;;;;;;;4.35;2.10;;;14.50;99.90;;;;;;5053922;28;20085;-81
2022/11/01 01:36:16;;;;;;;7.53;2.28;;;14.50;99.90;;;;;;5070231;28;20049;-81
2022/11/01 01:38:42;;;;;;;5.97;2.65;;;14.60;99.90;;;;;;5050662;28;20099;-81
2022/11/01 01:43:52;;;;;;;11.13;2.25;;;14.60;99.90;;;;;;5053658;28;20435;-82
2022/11/01 01:46:17;;;;;;;6.40;1.88;;;14.60;99.90;;;;;;5055068;28;20057;-82
2022/11/01 01:48:55;;;;;;;3.67;2.08;;;14.60;99.90;;;;;;5052675;28;20077;-83
2022/11/01 01:51:24;;;;;;;3.35;1.88;;;14.70;99.90;;;;;;5037443;28;20048;-82
2022/11/01 01:53:56;;;;;;;7.40;2.88;;;14.70;99.90;;;;;;5048816;28;20061;-82
2022/11/01 01:56:30;;;;;;;;;;;14.70;99.90;;;;;;5051399;28;20049;-82
2022/11/01 01:59:03;;;;;;;7.30;2.28;;;14.70;99.90;;;;;;5061643;28;20326;-82
2022/11/01 02:01:29;;;;;;;6.10;2.47;;;14.70;99.90;;;;;;5054063;28;20124;-81
2022/11/01 02:03:55;;;;;;;7.05;2.22;;;14.80;99.90;;;;;;5035674;28;20546;-82
2022/11/01 02:06:23;;;;;;;5.00;1.75;;;14.80;99.90;;;;;;5054536;28;20045;-82
2022/11/01 02:08:52;;;;;;;10.63;2.28;;;14.90;99.90;;;;;;5053114;28;20114;-82
2022/11/01 02:11:19;;;;;;;6.28;2.58;;;14.90;99.90;;;;;;5068542;28;20045;-82
2022/11/01 02:13:44;;;;;;;8.25;2.78;;;14.90;99.90;;;;;;5042943;28;20048;-82
2022/11/01 02:16:35;;;;;;;5.85;2.78;;;14.90;99.90;;;;;;5036634;28;20083;-82
2022/11/01 02:19:19;;;;;;;3.55;2.55;;;14.80;99.90;;;;;;5056668;28;20085;-82
2022/11/01 02:22:26;;;;;;;6.80;2.88;;;14.80;99.90;;;;;;5043620;28;20044;-83
2022/11/01 02:25:09;;;;;;;7.38;2.28;;;14.80;99.90;;;;;;5021591;28;20049;-85
2022/11/01 02:27:44;;;;;;;2.53;2.00;;;14.70;99.90;;;;;;5051973;28;20546;-81
2022/11/01 02:30:14;;;;;;;2.35;1.88;;;14.60;99.90;;;;;;5046160;28;20033;-82
2022/11/01 02:32:55;;;;;;;5.30;2.63;;;14.60;99.90;;;;;;5038383;28;20084;-82
2022/11/01 02:35:47;;;;;;;4.25;2.35;;;14.60;99.90;;;;;;5045767;28;20052;-81
2022/11/01 02:38:37;;;;;;;3.08;2.33;;;14.60;99.90;;;;;;5052203;28;20103;-82
2022/11/01 02:41:28;;;;;;;3.55;1.90;;;14.70;99.90;;;;;;5052026;28;20088;-81
2022/11/01 02:44:00;;;;;;;11.60;1.90;;;14.70;99.90;;;;;;5051666;28;20064;-82
2022/11/01 02:49:18;;;;;;;5.53;2.80;;;14.80;99.90;;;;;;5061404;28;20053;-82
2022/11/01 02:51:44;;;;;;;8.65;2.28;;;14.80;99.90;;;;;;5052374;28;20106;-81
2022/11/01 02:54:22;;;;;;;5.85;2.47;;;14.80;99.90;;;;;;5061099;28;20056;-81
2022/11/01 02:56:49;;;;;;;3.67;1.83;;;14.80;99.90;;;;;;5043879;28;20075;-81
2022/11/01 02:59:22;;;;;;;5.90;2.13;;;14.80;99.90;;;;;;5074903;28;20037;-81
2022/11/01 03:02:03;;;;;;;6.30;2.15;;;14.80;99.90;;;;;;5058567;28;20045;-81
2022/11/01 03:04:29;;;;;;;8.90;2.30;;;14.90;99.90;;;;;;5042982;28;20083;-81
2022/11/01 03:06:59;;;;;;;8.70;2.78;;;14.90;99.90;;;;;;5057120;28;20053;-83
2022/11/01 03:09:26;;;;;;;5.63;2.53;;;14.90;99.90;;;;;;5068065;28;20443;-81
2022/11/01 03:11:51;;;;;;;7.13;1.95;;;14.90;99.90;;;;;;5040034;28;20124;-81
2022/11/01 03:14:29;;;;;;;10.13;3.03;;;14.90;99.90;;;;;;5047690;28;20076;-84
2022/11/01 03:17:00;;;;;;;3.90;2.25;;;14.90;99.90;;;;;;5049404;28;20049;-82
2022/11/01 03:19:55;;;;;;;5.80;1.80;;;14.90;99.90;;;;;;5045962;28;20399;-81
2022/11/01 03:22:27;;;;;;;4.68;1.75;;;14.90;99.90;;;;;;5074891;28;20044;-82
2022/11/01 03:28:05;;;;;;;3.88;2.03;;;14.90;99.90;;;;;;5051109;28;20115;-81
2022/11/01 03:30:33;;;;;;;3.45;1.85;;;14.90;99.90;;;;;;5048500;28;20063;-82
2022/11/01 03:32:59;;;;;;;6.78;2.63;;;14.90;99.90;;;;;;5035189;28;20484;-81
2022/11/01 03:35:28;;;;;;;2.53;1.80;;;14.90;99.90;;;;;;5066313;28;20476;-82
2022/11/01 03:37:58;;;;;;;3.13;1.70;;;14.90;99.90;;;;;;5052471;28;20051;-81
2022/11/01 03:40:27;;;;;;;4.55;2.83;;;14.90;99.90;;;;;;5045770;28;20465;-81
2022/11/01 03:42:56;;;;;;;5.28;1.63;;;14.80;99.90;;;;;;5050649;28;20189;-82
2022/11/01 03:45:24;;;;;;;8.68;1.90;;;14.80;99.90;;;;;;5041502;28;20049;-81
2022/11/01 03:47:50;;;;;;;3.28;1.98;;;14.80;99.90;;;;;;5018054;28;20129;-81
2022/11/01 03:50:17;;;;;;;2.95;1.90;;;14.80;99.90;;;;;;5034221;28;20110;-81
2022/11/01 03:52:43;;;;;;;6.70;1.80;;;14.80;99.90;;;;;;5049124;28;20424;-81
2022/11/01 03:55:18;;;;;;;3.40;1.80;;;14.80;99.90;;;;;;5051192;28;20151;-82
2022/11/01 03:57:51;;;;;;;3.58;1.35;;;14.90;99.90;;;;;;5051984;28;20048;-82
2022/11/01 04:00:25;;;;;;;3.38;2.08;;;15.00;99.90;;;;;;5033685;28;20056;-82
2022/11/01 04:02:52;;;;;;;4.38;1.85;;;15.00;99.90;;;;;;5046765;28;20087;-81
2022/11/01 04:05:20;;;;;;;8.23;2.15;;;15.00;99.90;;;;;;5034273;28;20084;-80
2022/11/01 04:07:45;;;;;;;3.83;1.45;;;15.10;99.90;;;;;;5051889;28;20110;-81
2022/11/01 04:10:12;;;;;;;3.50;1.88;;;15.10;99.90;;;;;;5031790;28;20606;-81
2022/11/01 04:12:38;;;;;;;11.30;2.78;;;15.20;99.90;;;;;;5039570;28;20045;-81
2022/11/01 04:20:59;;;;;;;2.47;1.75;;;15.20;99.90;;;;;;5065224;28;20053;-82
2022/11/01 04:23:25;;;;;;;3.47;1.85;;;15.30;99.90;;;;;;5044260;28;20064;-82
2022/11/01 04:25:51;;;;;;;1.85;1.25;;;15.30;99.90;;;;;;5038604;28;20084;-83
2022/11/01 04:28:17;;;;;;;9.77;2.17;;;15.30;99.90;;;;;;5046317;28;20049;-81
2022/11/01 04:30:42;;;;;;;2.83;1.38;;;15.30;99.90;;;;;;5035882;28;20128;-83
2022/11/01 04:33:09;;;;;;;5.65;1.77;;;15.20;99.90;;;;;;5049660;28;20061;-81
2022/11/01 04:35:36;;;;;;;2.90;1.83;;;15.20;99.90;;;;;;5044629;28;20455;-84
2022/11/01 04:38:02;;;;;;;4.35;1.70;;;15.20;99.90;;;;;;5045982;28;20052;-81
2022/11/01 04:40:28;;;;;;;3.53;2.20;;;15.20;99.90;;;;;;5035388;28;20041;-85
2022/11/01 04:42:54;;;;;;;7.40;2.10;;;15.30;99.90;;;;;;5035963;28;20048;-81
2022/11/01 04:45:19;;;;;;;9.40;2.45;;;15.30;99.90;;;;;;5034554;28;20483;-81
2022/11/01 04:47:51;;;;;;;3.38;1.80;;;15.30;99.90;;;;;;5050453;28;20090;-81
2022/11/01 04:50:20;;;;;;;9.75;1.98;;;15.30;99.90;;;;;;5051219;28;20052;-81
2022/11/01 04:52:47;;;;;;;5.25;1.60;;;15.30;99.90;;;;;;5054697;28;20098;-81
2022/11/01 04:55:13;;;;;;;3.95;1.95;;;15.30;99.90;;;;;;5033914;28;20053;-81
2022/11/01 04:57:40;;;;;;;3.00;1.73;;;15.30;99.90;;;;;;5040660;28;20061;-80
2022/11/01 05:00:07;;;;;;;6.82;1.95;;;15.40;99.90;;;;;;5049252;28;20052;-84
2022/11/01 05:02:32;;;;;;;2.75;1.63;;;15.40;99.90;;;;;;5041219;28;20037;-81
2022/11/01 05:04:58;;;;;;;13.02;2.40;;;15.30;99.90;;;;;;5055257;28;20506;-81
2022/11/01 05:07:24;;;;;;;7.38;2.13;;;15.30;99.90;;;;;;5046147;28;20372;-81
2022/11/01 05:09:49;;;;;;;2.15;1.52;;;15.30;99.90;;;;;;5049994;28;20113;-84
2022/11/01 05:12:15;;;;;;;10.57;1.40;;;15.30;99.90;;;;;;5050145;28;20145;-82
2022/11/01 05:14:40;;;;;;;4.82;1.30;;;15.30;99.90;;;;;;5051330;28;20049;-81
2022/11/01 05:17:06;;;;;;;4.47;1.65;;;15.30;99.90;;;;;;5037803;28;20049;-81
2022/11/01 05:19:32;;;;;;;1.83;1.30;;;15.40;99.90;;;;;;5024381;28;20053;-80
2022/11/01 05:21:58;;;;;;;10.10;2.25;;;15.40;99.90;;;;;;5045045;28;20056;-81
2022/11/01 05:24:24;;;;;;;3.22;1.77;;;15.40;99.90;;;;;;5039984;28;20403;-81
2022/11/01 05:26:49;;;;;;;4.60;1.83;;;15.50;99.90;;;;;;5032706;28;20137;-81
2022/11/01 05:29:15;;;;;;;3.35;1.60;;;15.50;99.90;;;;;;5048933;28;20102;-80
2022/11/01 05:31:41;;;;;;;6.20;1.60;;;15.50;99.90;;;;;;5050051;28;20055;-81
2022/11/01 05:34:07;;;;;;;5.07;1.73;;;15.50;99.90;;;;;;5050000;28;20127;-81
2022/11/01 05:36:32;;;;;;;2.15;1.58;;;15.50;99.90;;;;;;5049077;28;20075;-81
2022/11/01 05:38:58;;;;;;;7.00;2.28;;;15.50;99.90;;;;;;5052815;28;20059;-81
2022/11/01 05:41:24;;;;;;;3.28;1.42;;;15.50;99.90;;;;;;5049829;28;20052;-81
2022/11/01 05:43:50;;;;;;;1.52;1.00;;;15.50;99.90;;;;;;5031946;28;20076;-82
2022/11/01 05:46:16;;;;;;;2.15;0.70;;;15.50;99.90;;;;;;5033774;28;20045;-80
2022/11/01 05:48:41;;;;;;;0.85;0.55;;;15.40;99.90;;;;;;5044856;28;20118;-81
2022/11/01 05:51:09;;;;;;;3.30;0.52;;;15.30;99.90;;;;;;5049946;28;20048;-81
2022/11/01 05:53:34;;;;;;;0.90;0.60;;;15.10;99.90;;;;;;5047833;28;20057;-82
2022/11/01 05:56:00;;;;;;;0.38;0.38;;;15.00;99.90;;;;;;5047099;28;20119;-82
2022/11/01 05:58:26;;;;;;;3.10;0.43;;;14.90;99.90;;;;;;5048926;28;20049;-79
2022/11/01 06:01:00;;;;;;;0.32;0.20;;;14.80;99.90;;;;;;5032477;28;20041;-81
2022/11/01 06:03:26;;;;;;;3.00;0.52;;;14.70;99.90;;;;;;5033412;28;20575;-82
2022/11/01 06:05:51;;;;;;;0.13;0.13;;;14.70;99.90;;;;;;5049019;28;20133;-81
2022/11/01 06:08:18;;;;;;;0.68;0.55;;;14.60;99.90;;;;;;5049739;28;20515;-81
2022/11/01 06:10:43;;;;;;;1.30;0.50;;;14.60;99.90;;;;;;5064125;28;20455;-82
2022/11/01 06:13:10;;;;;;;0.57;0.57;;;14.60;99.90;;;;;;5034287;28;20053;-82
2022/11/01 06:15:36;;;;;;;0.75;0.63;;;14.60;99.90;;;;;;5054056;28;20103;-81
2022/11/01 06:18:02;;;;;;;2.03;0.60;;;14.50;99.90;;;;;;5070536;28;20431;-82
2022/11/01 06:20:29;;;;;;;1.50;0.50;;;14.50;99.90;;;;;;5070504;28;20052;-82
2022/11/01 06:22:56;;;;;;;2.63;0.40;;;14.50;99.90;;;;;;5053326;28;20128;-82
2022/11/01 06:25:22;;;;;;;3.40;0.90;;;14.50;99.90;;;;;;5054202;28;20525;-81
2022/11/01 06:27:48;;;;;;;2.72;0.80;;;14.40;99.90;;;;;;5058192;28;20499;-82
2022/11/01 06:30:14;;;;;;;0.90;0.60;;;14.40;99.90;;;;;;5053464;28;20049;-82
2022/11/01 06:32:40;;;;;;;1.50;1.02;;;14.20;99.90;;;;;;5051783;28;20496;-81
2022/11/01 06:35:06;;;;;;;0.55;0.35;;;14.10;99.90;;;;;;5031766;28;20048;-81
2022/11/01 06:37:31;;;;;;;0.68;0.50;;;14.10;99.90;;;;;;5046810;28;20469;-81
2022/11/01 06:39:57;;;;;;;2.42;0.38;;;14.00;99.90;;;;;;5052525;28;20144;-81
2022/11/01 06:42:22;;;;;;;0.30;0.30;;;14.00;99.90;;;;;;5053805;28;20049;-81
2022/11/01 06:44:48;;;;;;;1.75;0.30;;;13.90;99.90;;;;;;5067917;28;20045;-81
2022/11/01 06:47:14;;;;;;;0.20;0.20;;;13.90;99.90;;;;;;5047328;28;20054;-84
2022/11/01 06:49:40;;;;;;;0.73;0.30;;;13.80;99.90;;;;;;5054005;28;20056;-80
2022/11/01 06:52:06;;;;;;;1.65;0.38;;;13.80;99.90;;;;;;5042109;28;20048;-81
2022/11/01 06:54:32;;;;;;;2.05;0.60;;;13.70;99.90;;;;;;5056194;28;20044;-82
2022/11/01 06:56:58;;;;;;;1.83;0.22;;;13.60;99.90;;;;;;5052386;28;20071;-80
2022/11/01 06:59:23;;;;;;;0.65;0.20;;;13.60;99.90;;;;;;5046497;28;20489;-80
2022/11/01 07:01:51;;;;;;;0.77;0.35;;;13.60;99.90;;;;;;5059289;28;20119;-81
2022/11/01 07:04:17;;;;;;;1.20;0.35;;;13.50;99.90;;;;;;5059145;28;20511;-79
2022/11/01 07:06:43;;;;;;;2.33;0.32;;;13.50;99.90;;;;;;5053513;28;20362;-79
2022/11/01 07:09:09;;;;;;;3.20;0.70;;;13.50;99.90;;;;;;5034435;28;20089;-82
2022/11/01 07:11:35;;;;;;;0.10;0.10;;;13.40;99.90;;;;;;5050361;28;20051;-80
2022/11/01 07:14:00;;;;;;;0.90;0.32;;;13.40;99.90;;;;;;5029680;28;20045;-79
2022/11/01 07:16:26;;;;;;;3.92;0.30;;;13.40;99.90;;;;;;5052265;28;20057;-81
2022/11/01 07:18:52;;;;;;;0.50;0.35;;;13.40;99.90;;;;;;5035591;28;20480;-80
2022/11/01 07:21:18;;;;;;;0.63;0.43;;;13.40;99.90;;;;;;5049213;28;20041;-79
2022/11/01 07:23:44;;;;;;;2.83;0.40;;;13.50;99.90;;;;;;5025908;28;20057;-82
2022/11/01 07:26:09;;;;;;;1.13;0.35;;;13.60;99.90;;;;;;5045719;28;20041;-79
2022/11/01 07:28:36;;;;;;;6.60;0.60;;;13.60;99.90;;;;;;5042653;28;20033;-81
2022/11/01 07:31:02;;;;;;;1.40;0.63;;;13.70;99.90;;;;;;5041460;28;20075;-79
2022/11/01 07:33:28;;;;;;;0.17;0.17;;;13.80;99.90;;;;;;5049559;28;20476;-80
2022/11/01 07:35:56;;;;;;;1.13;0.40;;;13.90;99.90;;;;;;5042966;28;20065;-83
2022/11/01 07:38:22;;;;;;;0.63;0.22;;;14.00;99.90;;;;;;5048748;28;20511;-82
2022/11/01 07:40:48;;;;;;;2.47;0.63;;;14.10;99.90;;;;;;5054718;28;20045;-80
2022/11/01 07:43:16;;;;;;;1.10;0.68;;;14.20;99.90;;;;;;5033025;28;20049;-80
2022/11/01 07:45:42;;;;;;;2.25;0.52;;;14.20;99.90;;;;;;5053810;28;20051;-81
2022/11/01 07:48:10;;;;;;;0.65;0.40;;;14.20;99.90;;;;;;5053276;28;20059;-80
2022/11/01 07:50:37;;;;;;;0.75;0.40;;;14.20;99.90;;;;;;5070426;28;20060;-79
2022/11/01 07:53:10;;;;;;;6.93;0.60;;;14.10;99.90;;;;;;5051460;28;20411;-80
2022/11/01 07:55:37;;;;;;;5.68;0.85;;;14.10;99.90;;;;;;5043632;28;20128;-80
2022/11/01 07:58:04;;;;;;;3.53;0.57;;;14.00;99.90;;;;;;5048957;28;20041;-81
2022/11/01 08:00:30;;;;;;;4.53;0.73;;;14.00;99.90;;;;;;5050665;28;20052;-82
2022/11/01 08:03:01;;;;;;;0.30;0.20;;;13.90;99.90;;;;;;5042363;28;20044;-81
2022/11/01 08:05:27;;;;;;;3.22;0.20;;;13.90;99.90;;;;;;5064971;28;20044;-80
2022/11/01 08:07:53;;;;;;;1.25;0.30;;;13.90;99.90;;;;;;5043404;28;20061;-79
2022/11/01 08:10:18;;;;;;;1.65;0.43;;;13.90;99.90;;;;;;5033410;28;20140;-81
2022/11/01 08:12:44;;;;;;;3.03;0.43;;;14.00;99.90;;;;;;5051991;28;20468;-82
2022/11/01 08:15:10;;;;;;;1.02;0.30;;;14.00;99.90;;;;;;5016135;28;20067;-82
2022/11/01 08:17:36;;;;;;;11.15;0.70;;;14.20;99.90;;;;;;5051824;28;20057;-81
2022/11/01 08:20:02;;;;;;;1.40;0.45;;;14.30;99.90;;;;;;5058161;28;20117;-81
2022/11/01 08:22:28;;;;;;;1.65;0.40;;;14.40;99.90;;;;;;5035079;28;20053;-81
2022/11/01 08:24:54;;;;;;;2.08;0.80;;;14.60;99.90;;;;;;5052894;28;20041;-81
2022/11/01 08:27:19;;;;;;;4.15;0.85;;;14.70;99.90;;;;;;5058373;28;20046;-81
2022/11/01 08:29:45;;;;;;;6.38;0.63;;;14.80;99.90;;;;;;5049810;28;20076;-82
2022/11/01 08:32:11;;;;;;;3.65;0.98;;;14.80;99.90;;;;;;5035573;28;20053;-82
2022/11/01 08:34:37;;;;;;;2.72;0.50;;;14.90;99.90;;;;;;5051047;28;20083;-82
2022/11/01 08:37:02;;;;;;;7.57;0.88;;;14.90;99.90;;;;;;5056852;28;20123;-83
2022/11/01 08:39:28;;;;;;;7.32;1.35;;;14.80;99.90;;;;;;5049481;28;20048;-81
2022/11/01 08:41:56;;;;;;;9.77;0.93;;;14.80;99.90;;;;;;5045560;28;20044;-84
2022/11/01 08:44:21;;;;;;;1.80;0.68;;;14.70;99.90;;;;;;5039902;28;20045;-82
2022/11/01 08:46:47;;;;;;;3.90;0.77;;;14.60;99.90;;;;;;5018387;28;20049;-83
2022/11/01 08:49:13;;;;;;;2.17;0.55;;;14.50;99.90;;;;;;5040582;28;20048;-82
2022/11/01 08:51:39;;;;;;;4.68;1.02;;;14.50;99.90;;;;;;5051220;28;20515;-82
2022/11/01 08:54:06;;;;;;;4.57;0.73;;;14.50;99.90;;;;;;5034840;28;20495;-83
2022/11/01 08:56:32;;;;;;;5.03;0.88;;;14.50;99.90;;;;;;5017619;28;20527;-82
2022/11/01 08:58:59;;;;;;;1.67;0.70;;;14.50;99.90;;;;;;5033342;28;20079;-81
2022/11/01 09:01:25;;;;;;;3.90;0.38;;;14.50;99.90;;;;;;5057204;28;20094;-82
2022/11/01 09:03:59;;;;;;;5.45;0.73;;;14.50;99.90;;;;;;5067370;28;20446;-81
2022/11/01 09:06:26;;;;;;;3.60;0.90;;;14.60;99.90;;;;;;5068200;28;20041;-82
2022/11/01 09:08:55;;;;;;;7.88;0.80;;;14.70;99.90;;;;;;5049791;28;20047;-81
2022/11/01 09:11:22;;;;;;;10.30;1.92;;;14.80;99.90;;;;;;5050150;28;20162;-81
2022/11/01 09:13:49;;;;;;;5.40;1.88;;;14.80;99.90;;;;;;5050150;28;20507;-82
2022/11/01 09:16:15;;;;;;;0.75;0.47;;;15.00;99.90;;;;;;5046552;28;20052;-82
2022/11/01 09:18:41;;;;;;;11.63;1.23;;;15.00;99.90;;;;;;5051311;28;20500;-82
2022/11/01 09:21:06;;;;;;;1.02;0.32;;;14.90;99.90;;;;;;5050817;28;20049;-81
2022/11/01 09:23:36;;;;;;;3.83;0.45;;;14.90;99.90;;;;;;5033861;28;20045;-82
2022/11/01 09:26:08;;;;;;;11.45;0.85;;;14.90;99.90;;;;;;5067999;28;20053;-81
2022/11/01 09:28:34;;;;;;;3.75;0.82;;;15.20;99.90;;;;;;5051015;28;20049;-82
2022/11/01 09:31:11;;;;;;;1.67;0.60;;;15.50;99.90;;;;;;5038465;28;20121;-82
2022/11/01 09:33:37;;;;;;;5.97;1.05;;;16.00;99.90;;;;;;5046784;28;20415;-82
2022/11/01 09:36:03;;;;;;;3.45;0.73;;;16.50;99.90;;;;;;5059323;28;20187;-82
2022/11/01 09:38:28;;;;;;;2.33;1.25;;;16.70;99.90;;;;;;5050981;28;20500;-81
2022/11/01 09:41:23;;;;;;;9.20;2.97;;;16.60;99.90;;;;;;5054584;28;20127;-81
2022/11/01 09:43:50;;;;;;;1.30;0.68;;;16.30;99.90;;;;;;5047896;28;20064;-81
2022/11/01 09:46:20;;;;;;;2.15;0.55;;;16.00;99.90;;;;;;5035640;28;20053;-81
2022/11/01 09:48:47;;;;;;;3.03;0.68;;;15.90;99.90;;;;;;5017816;28;20049;-82
2022/11/01 09:51:20;;;;;;;5.25;0.80;;;15.70;99.90;;;;;;5041771;28;20098;-82
2022/11/01 09:53:48;;;;;;;1.33;0.43;;;15.50;99.90;;;;;;5069944;28;20068;-81
2022/11/01 09:56:21;;;;;;;4.15;0.30;;;15.40;99.90;;;;;;5054589;28;20049;-81
2022/11/01 09:59:11;;;;;;;3.30;0.50;;;15.30;99.90;;;;;;5053417;28;20052;-81
2022/11/01 10:01:48;;;;;;;2.88;0.88;;;15.20;99.90;;;;;;5048636;28;20396;-81
2022/11/01 10:04:34;;;;;;;10.15;0.93;;;15.20;99.90;;;;;;5035859;28;20056;-81
2022/11/01 10:07:28;;;;;;;1.30;0.80;;;15.10;99.90;;;;;;5050490;28;20053;-81
2022/11/01 10:09:56;;;;;;;4.97;1.20;;;15.10;99.90;;;;;;5049169;28;20060;-81
2022/11/01 10:12:34;;;;;;;5.22;0.80;;;15.10;99.90;;;;;;5054079;28;20480;-81
2022/11/01 10:15:12;;;;;;;2.92;0.82;;;15.10;99.90;;;;;;5055096;28;20510;-81
2022/11/01 10:17:52;;;;;;;2.85;0.60;;;15.10;99.90;;;;;;5044748;28;20077;-81
2022/11/01 10:20:23;;;;;;;5.28;0.70;;;15.10;99.90;;;;;;5049001;28;20053;-81
2022/11/01 10:22:49;;;;;;;7.68;0.77;;;15.20;99.90;;;;;;5053961;28;20507;-80
2022/11/01 10:25:20;;;;;;;4.53;2.10;;;15.20;99.90;;;;;;5052667;28;20056;-81
2022/11/01 10:27:58;;;;;;;7.35;0.90;;;15.20;99.90;;;;;;5041275;28;20048;-83
2022/11/01 10:30:26;;;;;;;2.47;0.95;;;15.20;99.90;;;;;;5053294;28;20045;-83
2022/11/01 10:33:15;;;;;;;11.63;0.98;;;15.20;99.90;;;;;;5053223;28;20060;-81
2022/11/01 10:35:46;;;;;;;1.60;0.55;;;15.20;99.90;;;;;;5051250;28;20084;-82
2022/11/01 10:38:39;;;;;;;3.70;0.73;;;15.20;99.90;;;;;;5034029;28;20099;-81
2022/11/01 10:41:25;;;;;;;7.50;0.95;;;15.30;99.90;;;;;;5046015;28;20175;-81
2022/11/01 10:43:59;;;;;;;2.13;0.50;;;15.40;99.90;;;;;;5053497;28;20053;-81
2022/11/01 10:46:30;;;;;;;1.92;0.70;;;15.50;99.90;;;;;;5054013;28;20076;-82
2022/11/01 10:49:11;;;;;;;5.28;0.55;;;15.60;99.90;;;;;;5053893;28;20056;-82
2022/11/01 10:51:40;;;;;;;2.10;0.73;;;15.60;99.90;;;;;;5049838;28;20056;-81
2022/11/01 10:54:15;;;;;;;10.75;1.15;;;15.70;99.90;;;;;;5047262;28;20044;-81
2022/11/01 10:56:46;;;;;;;2.95;0.25;;;15.70;99.90;;;;;;5041293;28;20072;-81
2022/11/01 10:59:15;;;;;;;7.25;0.77;;;15.60;99.90;;;;;;5052486;28;20049;-81
2022/11/01 11:01:43;;;;;;;5.43;1.10;;;15.60;99.90;;;;;;5052496;28;20057;-81
2022/11/01 11:04:15;;;;;;;3.85;0.77;;;15.70;99.90;;;;;;5061377;28;20083;-82
2022/11/01 11:06:42;;;;;;;16.40;1.20;;;15.70;99.90;;;;;;5062590;28;20050;-82
2022/11/01 11:09:21;;;;;;;10.10;1.23;;;15.80;99.90;;;;;;5050840;28;20119;-81
2022/11/01 11:11:48;;;;;;;2.10;0.52;;;15.80;99.90;;;;;;5048374;28;20440;-81
2022/11/01 11:14:16;;;;;;;10.68;1.00;;;15.70;99.90;;;;;;5045336;28;20128;-81
2022/11/01 11:16:49;;;;;;;3.10;0.43;;;15.70;99.90;;;;;;5053258;28;20060;-82
2022/11/01 11:19:34;;;;;;;2.08;0.40;;;15.70;99.90;;;;;;5052166;28;20063;-82
2022/11/01 11:22:04;;;;;;;4.60;0.70;;;15.80;99.90;;;;;;5052660;28;20365;-81
2022/11/01 11:24:36;;;;;;;5.65;0.80;;;15.90;99.90;;;;;;5052699;28;20556;-81
2022/11/01 11:27:10;;;;;;;8.35;1.25;;;15.90;99.90;;;;;;5047059;28;20048;-81
2022/11/01 11:29:48;;;;;;;9.73;0.63;;;15.90;99.90;;;;;;5043872;28;20079;-85
2022/11/01 11:32:27;;;;;;;11.05;0.85;;;16.00;99.90;;;;;;5058631;28;20480;-80
2022/11/01 11:34:57;;;;;;;5.65;0.70;;;16.10;99.90;;;;;;5070152;28;20045;-82
2022/11/01 11:37:27;;;;;;;2.13;0.93;;;16.20;99.90;;;;;;5059269;28;20126;-80
2022/11/01 11:40:11;;;;;;;5.47;0.82;;;16.30;99.90;;;;;;5067984;28;20079;-81
2022/11/01 11:42:37;;;;;;;0.43;0.43;;;16.30;99.90;;;;;;5058928;28;20064;-81
2022/11/01 11:45:26;;;;;;;2.78;1.00;;;16.30;99.90;;;;;;5068045;28;20496;-82
2022/11/01 11:47:53;;;;;;;5.90;0.85;;;16.30;99.90;;;;;;5058058;28;20184;-81
2022/11/01 11:50:18;;;;;;;9.35;1.35;;;16.30;99.90;;;;;;5060963;28;20041;-81
2022/11/01 11:53:05;;;;;;;9.82;1.38;;;16.40;99.90;;;;;;5052518;28;20464;-83
2022/11/01 11:55:53;;;;;;;4.63;0.60;;;16.40;99.90;;;;;;5047830;28;20144;-81
2022/11/01 11:58:25;;;;;;;9.85;0.70;;;16.40;99.90;;;;;;5050921;28;20411;-81
2022/11/01 12:00:57;;;;;;;3.92;0.70;;;16.50;99.90;;;;;;5050997;28;20455;-81
2022/11/01 12:03:22;;;;;;;2.15;0.60;;;16.50;99.90;;;;;;5049100;28;20136;-81
2022/11/01 12:06:07;;;;;;;5.63;1.60;;;16.50;99.90;;;;;;5051026;28;20128;-81
2022/11/01 12:08:45;;;;;;;4.18;0.75;;;16.50;99.90;;;;;;5048548;28;20041;-82
2022/11/01 12:11:12;;;;;;;3.13;1.33;;;16.60;99.90;;;;;;5048084;28;20056;-85
2022/11/01 12:13:42;;;;;;;7.88;0.95;;;16.60;99.90;;;;;;5044968;28;20374;-84
2022/11/01 12:16:19;;;;;;;2.63;0.57;;;16.60;99.90;;;;;;5048190;28;20128;-83
2022/11/01 12:19:04;;;;;;;5.38;0.70;;;16.60;99.90;;;;;;5024282;28;20049;-87
2022/11/01 12:21:39;;;;;;;3.88;0.68;;;16.60;99.90;;;;;;5032095;28;20048;-84
2022/11/01 12:24:13;;;;;;;3.67;0.70;;;16.60;99.90;;;;;;5047386;28;20048;-84
2022/11/01 12:26:41;;;;;;;5.68;0.65;;;16.60;99.90;;;;;;5051956;28;20053;-83
2022/11/01 12:29:38;;;;;;;5.15;0.30;;;16.60;99.90;;;;;;5046186;28;20041;-82
2022/11/01 12:32:15;;;;;;;4.85;0.50;;;16.60;99.90;;;;;;5023823;28;20072;-82
2022/11/01 12:34:43;;;;;;;0.95;0.47;;;16.70;99.90;;;;;;5051090;28;20049;-86
2022/11/01 12:37:20;;;;;;;10.93;1.58;;;16.70;99.90;;;;;;5068229;28;20045;-82
2022/11/01 12:40:22;;;;;;;4.28;0.75;;;16.70;99.90;;;;;;5031980;28;20077;-83
2022/11/01 12:43:22;;;;;;;6.60;0.63;;;16.80;99.90;;;;;;5043857;28;20048;-83
2022/11/01 12:46:16;;;;;;;2.85;0.50;;;16.80;99.90;;;;;;5050061;28;20116;-83
2022/11/01 12:49:09;;;;;;;2.83;0.77;;;16.90;99.90;;;;;;5050864;28;20053;-83
2022/11/01 12:51:46;;;;;;;1.65;0.60;;;16.80;99.90;;;;;;5042154;28;20416;-83
2022/11/01 12:54:15;;;;;;;7.05;0.63;;;16.80;99.90;;;;;;5040106;28;20099;-82
2022/11/01 12:56:41;;;;;;;4.07;0.70;;;16.80;99.90;;;;;;5060791;28;20448;-83
2022/11/01 12:59:11;;;;;;;9.93;0.63;;;16.80;99.90;;;;;;5057314;28;20083;-83
2022/11/01 13:02:11;;;;;;;2.47;0.50;;;16.80;99.90;;;;;;5032206;28;20387;-83
2022/11/01 13:04:48;;;;;;;2.80;0.68;;;16.80;99.90;;;;;;5053554;28;20484;-85
2022/11/01 13:07:45;;;;;;;6.05;0.68;;;16.80;99.90;;;;;;5060015;28;20126;-85
2022/11/01 13:10:29;;;;;;;5.88;0.88;;;16.80;99.90;;;;;;5048343;28;20041;-84
2022/11/01 13:13:35;;;;;;;3.88;0.85;;;16.90;99.90;;;;;;5048547;28;20045;-84
2022/11/01 13:16:19;;;;;;;3.05;0.77;;;16.80;99.90;;;;;;5040613;28;20495;-84